sensor_id;sensor_type;location;lat;lon;timestamp;P1;durP1;ratioP1;P2;durP2;ratioP2
11064;SDS011;5585;52.530;7.320;2023-01-23T00:01:52;9.73;;;6.53;;
11064;SDS011;5585;52.530;7.320;2023-01-23T00:04:18;8.97;;;6.37;;
11064;SDS011;5585;52.530;7.320;2023-01-23T00:06:45;6.50;;;5.80;;
11064;SDS011;5585;52.530;7.320;2023-01-23T00:09:16;9.77;;;6.13;;
11064;SDS011;5585;52.530;7.320;2023-01-23T00:11:42;10.23;;;6.07;;
11064;SDS011;5585;52.530;7.320;2023-01-23T00:14:09;10.17;;;6.23;;
11064;SDS011;5585;52.530;7.320;2023-01-23T00:16:36;9.33;;;6.20;;
11064;SDS011;5585;52.530;7.320;2023-01-23T00:19:02;9.70;;;6.27;;
11064;SDS011;5585;52.530;7.320;2023-01-23T00:21:29;7.97;;;6.27;;
11064;SDS011;5585;52.530;7.320;2023-01-23T00:23:56;7.53;;;5.80;;
11064;SDS011;5585;52.530;7.320;2023-01-23T00:26:25;8.33;;;5.67;;
11064;SDS011;5585;52.530;7.320;2023-01-23T00:28:52;7.77;;;5.60;;
11064;SDS011;5585;52.530;7.320;2023-01-23T00:31:19;8.37;;;5.77;;
11064;SDS011;5585;52.530;7.320;2023-01-23T00:33:46;7.27;;;5.70;;
11064;SDS011;5585;52.530;7.320;2023-01-23T00:36:13;10.17;;;6.00;;
11064;SDS011;5585;52.530;7.320;2023-01-23T00:38:40;7.77;;;5.90;;
11064;SDS011;5585;52.530;7.320;2023-01-23T00:41:07;7.63;;;6.10;;
11064;SDS011;5585;52.530;7.320;2023-01-23T00:43:35;6.93;;;5.90;;
11064;SDS011;5585;52.530;7.320;2023-01-23T00:46:01;8.53;;;5.63;;
11064;SDS011;5585;52.530;7.320;2023-01-23T00:48:28;8.03;;;5.80;;
11064;SDS011;5585;52.530;7.320;2023-01-23T00:50:54;8.53;;;5.57;;
11064;SDS011;5585;52.530;7.320;2023-01-23T00:53:21;7.27;;;6.37;;
11064;SDS011;5585;52.530;7.320;2023-01-23T00:55:48;9.13;;;6.73;;
11064;SDS011;5585;52.530;7.320;2023-01-23T00:58:14;9.97;;;6.17;;
11064;SDS011;5585;52.530;7.320;2023-01-23T01:00:42;8.60;;;6.17;;
11064;SDS011;5585;52.530;7.320;2023-01-23T01:03:08;9.30;;;6.10;;
11064;SDS011;5585;52.530;7.320;2023-01-23T01:05:35;7.30;;;6.00;;
11064;SDS011;5585;52.530;7.320;2023-01-23T01:08:02;7.20;;;5.60;;
11064;SDS011;5585;52.530;7.320;2023-01-23T01:10:28;5.97;;;5.13;;
11064;SDS011;5585;52.530;7.320;2023-01-23T01:12:57;8.03;;;5.80;;
11064;SDS011;5585;52.530;7.320;2023-01-23T01:15:24;7.23;;;5.37;;
11064;SDS011;5585;52.530;7.320;2023-01-23T01:17:52;6.87;;;5.50;;
11064;SDS011;5585;52.530;7.320;2023-01-23T01:20:19;8.10;;;5.60;;
11064;SDS011;5585;52.530;7.320;2023-01-23T01:22:45;7.93;;;4.90;;
11064;SDS011;5585;52.530;7.320;2023-01-23T01:25:12;7.40;;;5.60;;
11064;SDS011;5585;52.530;7.320;2023-01-23T01:27:38;8.63;;;5.33;;
11064;SDS011;5585;52.530;7.320;2023-01-23T01:30:05;6.33;;;4.90;;
11064;SDS011;5585;52.530;7.320;2023-01-23T01:32:34;6.10;;;5.50;;
11064;SDS011;5585;52.530;7.320;2023-01-23T01:35:03;7.37;;;5.37;;
11064;SDS011;5585;52.530;7.320;2023-01-23T01:37:31;8.70;;;5.73;;
11064;SDS011;5585;52.530;7.320;2023-01-23T01:39:57;9.83;;;5.13;;
11064;SDS011;5585;52.530;7.320;2023-01-23T01:42:42;8.47;;;5.57;;
11064;SDS011;5585;52.530;7.320;2023-01-23T01:47:50;7.03;;;5.47;;
11064;SDS011;5585;52.530;7.320;2023-01-23T01:50:18;8.33;;;5.50;;
11064;SDS011;5585;52.530;7.320;2023-01-23T01:52:45;7.30;;;5.40;;
11064;SDS011;5585;52.530;7.320;2023-01-23T01:55:11;7.53;;;5.83;;
11064;SDS011;5585;52.530;7.320;2023-01-23T01:57:40;8.07;;;6.23;;
11064;SDS011;5585;52.530;7.320;2023-01-23T02:00:08;9.27;;;6.20;;
11064;SDS011;5585;52.530;7.320;2023-01-23T02:02:36;8.37;;;6.17;;
11064;SDS011;5585;52.530;7.320;2023-01-23T02:05:04;8.43;;;6.03;;
11064;SDS011;5585;52.530;7.320;2023-01-23T02:07:34;8.77;;;6.10;;
11064;SDS011;5585;52.530;7.320;2023-01-23T02:10:06;6.63;;;5.30;;
11064;SDS011;5585;52.530;7.320;2023-01-23T02:12:33;7.43;;;6.30;;
11064;SDS011;5585;52.530;7.320;2023-01-23T02:15:00;8.63;;;5.93;;
11064;SDS011;5585;52.530;7.320;2023-01-23T02:17:27;7.07;;;5.30;;
11064;SDS011;5585;52.530;7.320;2023-01-23T02:19:55;8.53;;;5.90;;
11064;SDS011;5585;52.530;7.320;2023-01-23T02:22:26;8.73;;;6.00;;
11064;SDS011;5585;52.530;7.320;2023-01-23T02:25:08;8.40;;;5.80;;
11064;SDS011;5585;52.530;7.320;2023-01-23T02:27:37;7.27;;;5.30;;
11064;SDS011;5585;52.530;7.320;2023-01-23T02:30:04;6.77;;;5.47;;
11064;SDS011;5585;52.530;7.320;2023-01-23T02:32:32;7.47;;;5.63;;
11064;SDS011;5585;52.530;7.320;2023-01-23T02:35:00;8.60;;;5.90;;
11064;SDS011;5585;52.530;7.320;2023-01-23T02:37:30;9.47;;;5.63;;
11064;SDS011;5585;52.530;7.320;2023-01-23T02:39:58;9.23;;;5.57;;
11064;SDS011;5585;52.530;7.320;2023-01-23T02:42:26;7.93;;;5.20;;
11064;SDS011;5585;52.530;7.320;2023-01-23T02:44:54;9.27;;;5.87;;
11064;SDS011;5585;52.530;7.320;2023-01-23T02:47:22;10.90;;;5.83;;
11064;SDS011;5585;52.530;7.320;2023-01-23T02:49:49;8.37;;;5.90;;
11064;SDS011;5585;52.530;7.320;2023-01-23T02:52:16;8.30;;;6.20;;
11064;SDS011;5585;52.530;7.320;2023-01-23T02:54:42;9.00;;;6.27;;
11064;SDS011;5585;52.530;7.320;2023-01-23T02:57:09;8.97;;;6.17;;
11064;SDS011;5585;52.530;7.320;2023-01-23T02:59:35;8.53;;;5.93;;
11064;SDS011;5585;52.530;7.320;2023-01-23T03:02:20;8.40;;;5.90;;
11064;SDS011;5585;52.530;7.320;2023-01-23T03:04:47;10.27;;;6.37;;
11064;SDS011;5585;52.530;7.320;2023-01-23T03:07:13;8.57;;;6.23;;
11064;SDS011;5585;52.530;7.320;2023-01-23T03:09:40;7.57;;;5.97;;
11064;SDS011;5585;52.530;7.320;2023-01-23T03:12:07;8.67;;;6.10;;
11064;SDS011;5585;52.530;7.320;2023-01-23T03:14:34;7.83;;;6.33;;
11064;SDS011;5585;52.530;7.320;2023-01-23T03:17:01;8.40;;;6.27;;
11064;SDS011;5585;52.530;7.320;2023-01-23T03:19:29;8.77;;;6.40;;
11064;SDS011;5585;52.530;7.320;2023-01-23T03:21:55;8.57;;;5.73;;
11064;SDS011;5585;52.530;7.320;2023-01-23T03:24:22;9.03;;;6.07;;
11064;SDS011;5585;52.530;7.320;2023-01-23T03:26:49;7.83;;;5.80;;
11064;SDS011;5585;52.530;7.320;2023-01-23T03:29:16;10.60;;;6.00;;
11064;SDS011;5585;52.530;7.320;2023-01-23T03:32:00;9.10;;;6.27;;
11064;SDS011;5585;52.530;7.320;2023-01-23T03:34:28;6.50;;;5.37;;
11064;SDS011;5585;52.530;7.320;2023-01-23T03:36:55;9.47;;;6.27;;
11064;SDS011;5585;52.530;7.320;2023-01-23T03:39:22;10.43;;;6.50;;
11064;SDS011;5585;52.530;7.320;2023-01-23T03:42:06;9.93;;;6.70;;
11064;SDS011;5585;52.530;7.320;2023-01-23T03:44:32;8.77;;;6.20;;
11064;SDS011;5585;52.530;7.320;2023-01-23T03:46:59;7.70;;;6.23;;
11064;SDS011;5585;52.530;7.320;2023-01-23T03:49:25;8.30;;;5.80;;
11064;SDS011;5585;52.530;7.320;2023-01-23T03:51:53;7.47;;;5.50;;
11064;SDS011;5585;52.530;7.320;2023-01-23T03:54:20;8.00;;;6.03;;
11064;SDS011;5585;52.530;7.320;2023-01-23T03:56:46;8.07;;;6.07;;
11064;SDS011;5585;52.530;7.320;2023-01-23T03:59:13;6.27;;;5.63;;
11064;SDS011;5585;52.530;7.320;2023-01-23T04:01:39;9.80;;;6.27;;
11064;SDS011;5585;52.530;7.320;2023-01-23T04:04:06;9.60;;;5.47;;
11064;SDS011;5585;52.530;7.320;2023-01-23T04:06:33;6.10;;;5.43;;
11064;SDS011;5585;52.530;7.320;2023-01-23T04:09:01;7.90;;;6.57;;
11064;SDS011;5585;52.530;7.320;2023-01-23T04:11:27;8.13;;;5.97;;
11064;SDS011;5585;52.530;7.320;2023-01-23T04:13:54;9.23;;;5.93;;
11064;SDS011;5585;52.530;7.320;2023-01-23T04:16:20;7.30;;;5.67;;
11064;SDS011;5585;52.530;7.320;2023-01-23T04:18:47;7.40;;;5.40;;
11064;SDS011;5585;52.530;7.320;2023-01-23T04:21:13;8.57;;;5.80;;
11064;SDS011;5585;52.530;7.320;2023-01-23T04:23:40;7.60;;;5.87;;
11064;SDS011;5585;52.530;7.320;2023-01-23T04:26:08;6.77;;;5.23;;
11064;SDS011;5585;52.530;7.320;2023-01-23T04:28:34;6.53;;;5.83;;
11064;SDS011;5585;52.530;7.320;2023-01-23T04:31:01;6.83;;;5.90;;
11064;SDS011;5585;52.530;7.320;2023-01-23T04:33:27;7.67;;;5.70;;
11064;SDS011;5585;52.530;7.320;2023-01-23T04:35:54;6.90;;;5.87;;
11064;SDS011;5585;52.530;7.320;2023-01-23T04:38:21;9.50;;;6.00;;
11064;SDS011;5585;52.530;7.320;2023-01-23T04:40:48;7.43;;;6.33;;
11064;SDS011;5585;52.530;7.320;2023-01-23T04:43:16;7.97;;;5.97;;
11064;SDS011;5585;52.530;7.320;2023-01-23T04:45:43;7.63;;;5.63;;
11064;SDS011;5585;52.530;7.320;2023-01-23T04:48:10;8.00;;;6.27;;
11064;SDS011;5585;52.530;7.320;2023-01-23T04:50:36;10.90;;;6.10;;
11064;SDS011;5585;52.530;7.320;2023-01-23T04:53:03;8.60;;;6.47;;
11064;SDS011;5585;52.530;7.320;2023-01-23T04:55:30;7.50;;;6.10;;
11064;SDS011;5585;52.530;7.320;2023-01-23T04:57:58;8.63;;;6.53;;
11064;SDS011;5585;52.530;7.320;2023-01-23T05:00:25;11.00;;;6.80;;
11064;SDS011;5585;52.530;7.320;2023-01-23T05:02:54;9.00;;;6.70;;
11064;SDS011;5585;52.530;7.320;2023-01-23T05:05:20;9.00;;;7.03;;
11064;SDS011;5585;52.530;7.320;2023-01-23T05:07:47;7.30;;;6.20;;
11064;SDS011;5585;52.530;7.320;2023-01-23T05:10:14;10.67;;;6.67;;
11064;SDS011;5585;52.530;7.320;2023-01-23T05:12:41;8.00;;;6.33;;
11064;SDS011;5585;52.530;7.320;2023-01-23T05:15:08;8.87;;;6.87;;
11064;SDS011;5585;52.530;7.320;2023-01-23T05:17:36;8.83;;;6.50;;
11064;SDS011;5585;52.530;7.320;2023-01-23T05:20:03;8.67;;;6.63;;
11064;SDS011;5585;52.530;7.320;2023-01-23T05:22:30;11.83;;;7.37;;
11064;SDS011;5585;52.530;7.320;2023-01-23T05:24:57;10.30;;;7.23;;
11064;SDS011;5585;52.530;7.320;2023-01-23T05:27:24;10.23;;;7.37;;
11064;SDS011;5585;52.530;7.320;2023-01-23T05:29:50;8.77;;;6.83;;
11064;SDS011;5585;52.530;7.320;2023-01-23T05:32:17;10.37;;;7.40;;
11064;SDS011;5585;52.530;7.320;2023-01-23T05:34:45;11.17;;;7.17;;
11064;SDS011;5585;52.530;7.320;2023-01-23T05:37:11;9.33;;;7.10;;
11064;SDS011;5585;52.530;7.320;2023-01-23T05:39:38;8.57;;;6.63;;
11064;SDS011;5585;52.530;7.320;2023-01-23T05:42:04;9.10;;;7.23;;
11064;SDS011;5585;52.530;7.320;2023-01-23T05:44:31;9.07;;;6.77;;
11064;SDS011;5585;52.530;7.320;2023-01-23T05:46:57;10.23;;;6.97;;
11064;SDS011;5585;52.530;7.320;2023-01-23T05:49:24;7.73;;;6.60;;
11064;SDS011;5585;52.530;7.320;2023-01-23T05:51:52;9.87;;;7.73;;
11064;SDS011;5585;52.530;7.320;2023-01-23T05:54:18;11.87;;;7.80;;
11064;SDS011;5585;52.530;7.320;2023-01-23T05:56:45;9.20;;;7.30;;
11064;SDS011;5585;52.530;7.320;2023-01-23T05:59:11;9.23;;;7.20;;
11064;SDS011;5585;52.530;7.320;2023-01-23T06:01:38;9.93;;;7.37;;
11064;SDS011;5585;52.530;7.320;2023-01-23T06:04:04;8.33;;;6.67;;
11064;SDS011;5585;52.530;7.320;2023-01-23T06:06:31;9.67;;;7.37;;
11064;SDS011;5585;52.530;7.320;2023-01-23T06:08:59;9.87;;;7.00;;
11064;SDS011;5585;52.530;7.320;2023-01-23T06:11:25;8.57;;;7.67;;
11064;SDS011;5585;52.530;7.320;2023-01-23T06:13:52;9.40;;;8.07;;
11064;SDS011;5585;52.530;7.320;2023-01-23T06:16:18;8.97;;;7.60;;
11064;SDS011;5585;52.530;7.320;2023-01-23T06:18:45;9.33;;;7.37;;
11064;SDS011;5585;52.530;7.320;2023-01-23T06:21:11;10.80;;;7.47;;
11064;SDS011;5585;52.530;7.320;2023-01-23T06:23:39;10.47;;;8.03;;
11064;SDS011;5585;52.530;7.320;2023-01-23T06:26:07;10.20;;;8.10;;
11064;SDS011;5585;52.530;7.320;2023-01-23T06:28:33;9.93;;;8.00;;
11064;SDS011;5585;52.530;7.320;2023-01-23T06:31:00;9.87;;;7.57;;
11064;SDS011;5585;52.530;7.320;2023-01-23T06:33:28;9.27;;;7.80;;
11064;SDS011;5585;52.530;7.320;2023-01-23T06:35:56;9.90;;;7.83;;
11064;SDS011;5585;52.530;7.320;2023-01-23T06:38:22;8.60;;;7.33;;
11064;SDS011;5585;52.530;7.320;2023-01-23T06:40:49;10.70;;;8.33;;
11064;SDS011;5585;52.530;7.320;2023-01-23T06:43:17;11.77;;;7.97;;
11064;SDS011;5585;52.530;7.320;2023-01-23T06:45:43;10.07;;;8.10;;
11064;SDS011;5585;52.530;7.320;2023-01-23T06:48:10;9.50;;;7.57;;
11064;SDS011;5585;52.530;7.320;2023-01-23T06:50:37;9.00;;;7.70;;
11064;SDS011;5585;52.530;7.320;2023-01-23T06:53:03;10.77;;;7.43;;
11064;SDS011;5585;52.530;7.320;2023-01-23T06:55:30;12.07;;;8.53;;
11064;SDS011;5585;52.530;7.320;2023-01-23T06:57:57;11.47;;;8.00;;
11064;SDS011;5585;52.530;7.320;2023-01-23T07:00:25;10.97;;;8.40;;
11064;SDS011;5585;52.530;7.320;2023-01-23T07:02:52;10.47;;;8.47;;
11064;SDS011;5585;52.530;7.320;2023-01-23T07:05:22;10.60;;;8.70;;
11064;SDS011;5585;52.530;7.320;2023-01-23T07:07:50;9.33;;;8.00;;
11064;SDS011;5585;52.530;7.320;2023-01-23T07:10:16;10.10;;;7.90;;
11064;SDS011;5585;52.530;7.320;2023-01-23T07:12:43;9.43;;;7.80;;
11064;SDS011;5585;52.530;7.320;2023-01-23T07:15:10;9.17;;;7.53;;
11064;SDS011;5585;52.530;7.320;2023-01-23T07:17:38;9.13;;;8.07;;
11064;SDS011;5585;52.530;7.320;2023-01-23T07:20:05;10.23;;;8.17;;
11064;SDS011;5585;52.530;7.320;2023-01-23T07:22:31;10.47;;;8.43;;
11064;SDS011;5585;52.530;7.320;2023-01-23T07:24:58;10.47;;;8.20;;
11064;SDS011;5585;52.530;7.320;2023-01-23T07:27:24;9.67;;;7.93;;
11064;SDS011;5585;52.530;7.320;2023-01-23T07:29:51;11.83;;;8.90;;
11064;SDS011;5585;52.530;7.320;2023-01-23T07:32:17;9.03;;;7.83;;
11064;SDS011;5585;52.530;7.320;2023-01-23T07:34:45;8.83;;;7.80;;
11064;SDS011;5585;52.530;7.320;2023-01-23T07:37:12;12.10;;;8.07;;
11064;SDS011;5585;52.530;7.320;2023-01-23T07:39:38;9.03;;;7.77;;
11064;SDS011;5585;52.530;7.320;2023-01-23T07:42:05;9.80;;;8.13;;
11064;SDS011;5585;52.530;7.320;2023-01-23T07:44:31;13.57;;;8.87;;
11064;SDS011;5585;52.530;7.320;2023-01-23T07:46:58;11.00;;;8.33;;
11064;SDS011;5585;52.530;7.320;2023-01-23T07:49:24;10.17;;;8.60;;
11064;SDS011;5585;52.530;7.320;2023-01-23T07:51:52;13.03;;;9.80;;
11064;SDS011;5585;52.530;7.320;2023-01-23T07:54:18;14.73;;;8.93;;
11064;SDS011;5585;52.530;7.320;2023-01-23T07:56:47;12.07;;;8.60;;
11064;SDS011;5585;52.530;7.320;2023-01-23T07:59:13;10.97;;;8.70;;
11064;SDS011;5585;52.530;7.320;2023-01-23T08:01:40;10.37;;;8.97;;
11064;SDS011;5585;52.530;7.320;2023-01-23T08:04:06;10.90;;;8.33;;
11064;SDS011;5585;52.530;7.320;2023-01-23T08:06:33;12.27;;;8.83;;
11064;SDS011;5585;52.530;7.320;2023-01-23T08:09:02;13.43;;;9.17;;
11064;SDS011;5585;52.530;7.320;2023-01-23T08:11:28;12.27;;;9.27;;
11064;SDS011;5585;52.530;7.320;2023-01-23T08:13:55;9.17;;;8.20;;
11064;SDS011;5585;52.530;7.320;2023-01-23T08:16:21;13.63;;;9.00;;
11064;SDS011;5585;52.530;7.320;2023-01-23T08:18:48;11.43;;;8.77;;
11064;SDS011;5585;52.530;7.320;2023-01-23T08:21:14;12.17;;;9.03;;
11064;SDS011;5585;52.530;7.320;2023-01-23T08:23:41;10.60;;;9.13;;
11064;SDS011;5585;52.530;7.320;2023-01-23T08:26:10;10.77;;;8.63;;
11064;SDS011;5585;52.530;7.320;2023-01-23T08:28:37;10.53;;;8.40;;
11064;SDS011;5585;52.530;7.320;2023-01-23T08:31:05;9.70;;;8.43;;
11064;SDS011;5585;52.530;7.320;2023-01-23T08:33:31;9.83;;;8.30;;
11064;SDS011;5585;52.530;7.320;2023-01-23T08:35:58;10.63;;;8.07;;
11064;SDS011;5585;52.530;7.320;2023-01-23T08:38:25;9.63;;;8.23;;
11064;SDS011;5585;52.530;7.320;2023-01-23T08:40:52;10.93;;;8.33;;
11064;SDS011;5585;52.530;7.320;2023-01-23T08:43:20;11.70;;;8.37;;
11064;SDS011;5585;52.530;7.320;2023-01-23T08:45:48;9.27;;;7.77;;
11064;SDS011;5585;52.530;7.320;2023-01-23T08:48:14;11.43;;;8.60;;
11064;SDS011;5585;52.530;7.320;2023-01-23T08:50:41;9.00;;;8.00;;
11064;SDS011;5585;52.530;7.320;2023-01-23T08:53:07;10.57;;;8.37;;
11064;SDS011;5585;52.530;7.320;2023-01-23T08:55:34;10.07;;;8.47;;
11064;SDS011;5585;52.530;7.320;2023-01-23T08:58:03;11.43;;;8.27;;
11064;SDS011;5585;52.530;7.320;2023-01-23T09:00:31;10.33;;;8.30;;
11064;SDS011;5585;52.530;7.320;2023-01-23T09:02:58;12.50;;;8.53;;
11064;SDS011;5585;52.530;7.320;2023-01-23T09:08:15;10.67;;;9.10;;
11064;SDS011;5585;52.530;7.320;2023-01-23T09:10:41;13.47;;;9.93;;
11064;SDS011;5585;52.530;7.320;2023-01-23T09:13:08;12.50;;;10.07;;
11064;SDS011;5585;52.530;7.320;2023-01-23T09:15:37;13.90;;;10.83;;
11064;SDS011;5585;52.530;7.320;2023-01-23T09:18:04;12.87;;;10.43;;
11064;SDS011;5585;52.530;7.320;2023-01-23T09:20:31;11.70;;;8.97;;
11064;SDS011;5585;52.530;7.320;2023-01-23T09:22:57;13.47;;;9.27;;
11064;SDS011;5585;52.530;7.320;2023-01-23T09:25:24;11.10;;;9.53;;
11064;SDS011;5585;52.530;7.320;2023-01-23T09:27:50;11.20;;;9.43;;
11064;SDS011;5585;52.530;7.320;2023-01-23T09:30:17;15.63;;;10.20;;
11064;SDS011;5585;52.530;7.320;2023-01-23T09:32:45;13.33;;;9.60;;
11064;SDS011;5585;52.530;7.320;2023-01-23T09:35:11;16.63;;;10.63;;
11064;SDS011;5585;52.530;7.320;2023-01-23T09:37:38;19.87;;;11.00;;
11064;SDS011;5585;52.530;7.320;2023-01-23T09:40:22;11.93;;;8.57;;
11064;SDS011;5585;52.530;7.320;2023-01-23T09:42:48;11.27;;;8.40;;
11064;SDS011;5585;52.530;7.320;2023-01-23T09:45:17;9.33;;;7.50;;
11064;SDS011;5585;52.530;7.320;2023-01-23T09:47:48;9.63;;;7.77;;
11064;SDS011;5585;52.530;7.320;2023-01-23T09:50:17;8.20;;;6.90;;
11064;SDS011;5585;52.530;7.320;2023-01-23T09:52:47;9.97;;;7.30;;
11064;SDS011;5585;52.530;7.320;2023-01-23T09:55:21;8.43;;;7.37;;
11064;SDS011;5585;52.530;7.320;2023-01-23T09:57:50;12.23;;;8.40;;
11064;SDS011;5585;52.530;7.320;2023-01-23T10:00:19;8.37;;;7.27;;
11064;SDS011;5585;52.530;7.320;2023-01-23T10:02:49;9.57;;;8.57;;
11064;SDS011;5585;52.530;7.320;2023-01-23T10:05:17;11.00;;;8.57;;
11064;SDS011;5585;52.530;7.320;2023-01-23T10:07:50;9.83;;;8.77;;
11064;SDS011;5585;52.530;7.320;2023-01-23T10:13:03;12.03;;;9.60;;
11064;SDS011;5585;52.530;7.320;2023-01-23T10:15:35;12.67;;;9.33;;
11064;SDS011;5585;52.530;7.320;2023-01-23T10:18:10;13.10;;;10.40;;
11064;SDS011;5585;52.530;7.320;2023-01-23T10:20:50;12.50;;;9.87;;
11064;SDS011;5585;52.530;7.320;2023-01-23T10:23:23;12.30;;;10.10;;
11064;SDS011;5585;52.530;7.320;2023-01-23T10:25:57;11.00;;;9.03;;
11064;SDS011;5585;52.530;7.320;2023-01-23T10:28:25;15.60;;;10.80;;
11064;SDS011;5585;52.530;7.320;2023-01-23T10:30:55;11.97;;;9.03;;
11064;SDS011;5585;52.530;7.320;2023-01-23T10:33:26;10.83;;;9.27;;
11064;SDS011;5585;52.530;7.320;2023-01-23T10:35:57;11.97;;;9.70;;
11064;SDS011;5585;52.530;7.320;2023-01-23T10:38:30;12.13;;;9.70;;
11064;SDS011;5585;52.530;7.320;2023-01-23T10:40:58;12.43;;;10.57;;
11064;SDS011;5585;52.530;7.320;2023-01-23T10:43:44;11.73;;;10.27;;
11064;SDS011;5585;52.530;7.320;2023-01-23T10:46:12;13.37;;;10.17;;
11064;SDS011;5585;52.530;7.320;2023-01-23T10:48:41;14.43;;;10.30;;
11064;SDS011;5585;52.530;7.320;2023-01-23T10:51:27;13.43;;;9.97;;
11064;SDS011;5585;52.530;7.320;2023-01-23T10:54:11;13.40;;;10.50;;
11064;SDS011;5585;52.530;7.320;2023-01-23T10:56:44;13.77;;;10.57;;
11064;SDS011;5585;52.530;7.320;2023-01-23T10:59:15;14.23;;;10.17;;
11064;SDS011;5585;52.530;7.320;2023-01-23T11:01:45;13.30;;;10.63;;
11064;SDS011;5585;52.530;7.320;2023-01-23T11:04:22;14.27;;;10.67;;
11064;SDS011;5585;52.530;7.320;2023-01-23T11:06:59;13.13;;;9.63;;
11064;SDS011;5585;52.530;7.320;2023-01-23T11:09:25;17.77;;;13.53;;
11064;SDS011;5585;52.530;7.320;2023-01-23T11:11:59;17.10;;;13.50;;
11064;SDS011;5585;52.530;7.320;2023-01-23T11:14:25;15.03;;;11.80;;
11064;SDS011;5585;52.530;7.320;2023-01-23T11:16:58;13.70;;;11.33;;
11064;SDS011;5585;52.530;7.320;2023-01-23T11:19:26;13.50;;;10.47;;
11064;SDS011;5585;52.530;7.320;2023-01-23T11:21:56;15.70;;;10.57;;
11064;SDS011;5585;52.530;7.320;2023-01-23T11:24:26;11.53;;;8.97;;
11064;SDS011;5585;52.530;7.320;2023-01-23T11:26:57;12.47;;;9.60;;
11064;SDS011;5585;52.530;7.320;2023-01-23T11:29:24;14.10;;;10.50;;
11064;SDS011;5585;52.530;7.320;2023-01-23T11:31:52;11.40;;;9.17;;
11064;SDS011;5585;52.530;7.320;2023-01-23T11:34:22;13.93;;;10.47;;
11064;SDS011;5585;52.530;7.320;2023-01-23T11:36:52;12.67;;;9.60;;
11064;SDS011;5585;52.530;7.320;2023-01-23T11:39:27;11.27;;;9.13;;
11064;SDS011;5585;52.530;7.320;2023-01-23T11:41:59;13.00;;;8.90;;
11064;SDS011;5585;52.530;7.320;2023-01-23T11:44:26;10.50;;;9.10;;
11064;SDS011;5585;52.530;7.320;2023-01-23T11:49:45;10.80;;;9.70;;
11064;SDS011;5585;52.530;7.320;2023-01-23T11:52:21;12.90;;;9.33;;
11064;SDS011;5585;52.530;7.320;2023-01-23T11:54:56;11.90;;;9.57;;
11064;SDS011;5585;52.530;7.320;2023-01-23T11:57:28;11.73;;;9.40;;
11064;SDS011;5585;52.530;7.320;2023-01-23T12:00:00;11.63;;;9.47;;
11064;SDS011;5585;52.530;7.320;2023-01-23T12:02:40;10.43;;;8.43;;
11064;SDS011;5585;52.530;7.320;2023-01-23T12:05:18;11.40;;;8.50;;
11064;SDS011;5585;52.530;7.320;2023-01-23T12:07:51;11.67;;;9.33;;
11064;SDS011;5585;52.530;7.320;2023-01-23T12:10:22;13.53;;;9.43;;
11064;SDS011;5585;52.530;7.320;2023-01-23T12:15:36;12.17;;;8.73;;
11064;SDS011;5585;52.530;7.320;2023-01-23T12:18:06;12.50;;;9.77;;
11064;SDS011;5585;52.530;7.320;2023-01-23T12:20:38;10.13;;;8.77;;
11064;SDS011;5585;52.530;7.320;2023-01-23T12:23:11;12.43;;;9.43;;
11064;SDS011;5585;52.530;7.320;2023-01-23T12:25:41;10.50;;;8.50;;
11064;SDS011;5585;52.530;7.320;2023-01-23T12:28:14;13.03;;;9.30;;
11064;SDS011;5585;52.530;7.320;2023-01-23T12:30:49;12.57;;;9.47;;
11064;SDS011;5585;52.530;7.320;2023-01-23T12:33:22;11.63;;;9.60;;
11064;SDS011;5585;52.530;7.320;2023-01-23T12:35:55;11.07;;;8.80;;
11064;SDS011;5585;52.530;7.320;2023-01-23T12:38:27;11.60;;;9.40;;
11064;SDS011;5585;52.530;7.320;2023-01-23T12:41:01;11.43;;;9.07;;
11064;SDS011;5585;52.530;7.320;2023-01-23T12:43:33;10.10;;;8.40;;
11064;SDS011;5585;52.530;7.320;2023-01-23T12:46:02;9.83;;;8.13;;
11064;SDS011;5585;52.530;7.320;2023-01-23T12:48:31;9.63;;;8.33;;
11064;SDS011;5585;52.530;7.320;2023-01-23T12:51:01;11.70;;;8.80;;
11064;SDS011;5585;52.530;7.320;2023-01-23T12:53:31;10.17;;;9.07;;
11064;SDS011;5585;52.530;7.320;2023-01-23T12:56:00;12.93;;;10.60;;
11064;SDS011;5585;52.530;7.320;2023-01-23T12:58:28;12.57;;;9.70;;
11064;SDS011;5585;52.530;7.320;2023-01-23T13:01:06;11.53;;;9.50;;
11064;SDS011;5585;52.530;7.320;2023-01-23T13:06:25;11.33;;;9.47;;
11064;SDS011;5585;52.530;7.320;2023-01-23T13:08:55;10.83;;;8.93;;
11064;SDS011;5585;52.530;7.320;2023-01-23T13:11:24;9.67;;;8.63;;
11064;SDS011;5585;52.530;7.320;2023-01-23T13:14:21;12.70;;;9.43;;
11064;SDS011;5585;52.530;7.320;2023-01-23T13:16:49;12.23;;;9.00;;
11064;SDS011;5585;52.530;7.320;2023-01-23T13:19:21;11.27;;;9.73;;
11064;SDS011;5585;52.530;7.320;2023-01-23T13:22:10;12.70;;;9.60;;
11064;SDS011;5585;52.530;7.320;2023-01-23T13:24:47;11.13;;;9.20;;
11064;SDS011;5585;52.530;7.320;2023-01-23T13:27:45;13.57;;;9.63;;
11064;SDS011;5585;52.530;7.320;2023-01-23T13:32:59;11.13;;;8.87;;
11064;SDS011;5585;52.530;7.320;2023-01-23T13:38:32;11.67;;;9.73;;
11064;SDS011;5585;52.530;7.320;2023-01-23T13:43:52;12.07;;;9.27;;
11064;SDS011;5585;52.530;7.320;2023-01-23T13:46:21;12.27;;;9.00;;
11064;SDS011;5585;52.530;7.320;2023-01-23T13:48:53;11.80;;;9.07;;
11064;SDS011;5585;52.530;7.320;2023-01-23T13:51:39;14.20;;;9.97;;
11064;SDS011;5585;52.530;7.320;2023-01-23T13:54:10;12.70;;;9.70;;
11064;SDS011;5585;52.530;7.320;2023-01-23T13:56:56;12.17;;;9.77;;
11064;SDS011;5585;52.530;7.320;2023-01-23T13:59:28;11.83;;;9.80;;
11064;SDS011;5585;52.530;7.320;2023-01-23T14:02:00;12.43;;;10.53;;
11064;SDS011;5585;52.530;7.320;2023-01-23T14:04:50;12.50;;;9.70;;
11064;SDS011;5585;52.530;7.320;2023-01-23T14:07:39;12.70;;;9.80;;
11064;SDS011;5585;52.530;7.320;2023-01-23T14:10:20;13.30;;;10.90;;
11064;SDS011;5585;52.530;7.320;2023-01-23T14:12:47;13.37;;;10.40;;
11064;SDS011;5585;52.530;7.320;2023-01-23T14:15:19;14.23;;;10.33;;
11064;SDS011;5585;52.530;7.320;2023-01-23T14:18:04;13.93;;;11.00;;
11064;SDS011;5585;52.530;7.320;2023-01-23T14:20:31;12.30;;;10.73;;
11064;SDS011;5585;52.530;7.320;2023-01-23T14:23:03;14.30;;;10.90;;
11064;SDS011;5585;52.530;7.320;2023-01-23T14:25:30;11.17;;;9.73;;
11064;SDS011;5585;52.530;7.320;2023-01-23T14:28:01;12.63;;;9.87;;
11064;SDS011;5585;52.530;7.320;2023-01-23T14:30:30;12.90;;;10.20;;
11064;SDS011;5585;52.530;7.320;2023-01-23T14:32:56;12.87;;;10.30;;
11064;SDS011;5585;52.530;7.320;2023-01-23T14:35:24;13.87;;;10.10;;
11064;SDS011;5585;52.530;7.320;2023-01-23T14:37:51;13.77;;;10.13;;
11064;SDS011;5585;52.530;7.320;2023-01-23T14:40:20;13.10;;;10.60;;
11064;SDS011;5585;52.530;7.320;2023-01-23T14:42:49;14.33;;;10.10;;
11064;SDS011;5585;52.530;7.320;2023-01-23T14:45:17;12.47;;;10.53;;
11064;SDS011;5585;52.530;7.320;2023-01-23T14:47:45;12.13;;;9.53;;
11064;SDS011;5585;52.530;7.320;2023-01-23T14:50:15;13.73;;;9.93;;
11064;SDS011;5585;52.530;7.320;2023-01-23T14:52:41;13.20;;;10.53;;
11064;SDS011;5585;52.530;7.320;2023-01-23T14:55:18;13.53;;;10.00;;
11064;SDS011;5585;52.530;7.320;2023-01-23T14:57:45;11.03;;;9.37;;
11064;SDS011;5585;52.530;7.320;2023-01-23T15:00:12;12.07;;;9.43;;
11064;SDS011;5585;52.530;7.320;2023-01-23T15:02:43;11.50;;;9.57;;
11064;SDS011;5585;52.530;7.320;2023-01-23T15:05:19;11.87;;;8.90;;
11064;SDS011;5585;52.530;7.320;2023-01-23T15:07:48;11.03;;;9.30;;
11064;SDS011;5585;52.530;7.320;2023-01-23T15:10:16;10.90;;;9.20;;
11064;SDS011;5585;52.530;7.320;2023-01-23T15:12:47;12.80;;;9.50;;
11064;SDS011;5585;52.530;7.320;2023-01-23T15:15:14;11.97;;;9.37;;
11064;SDS011;5585;52.530;7.320;2023-01-23T15:17:42;11.20;;;9.77;;
11064;SDS011;5585;52.530;7.320;2023-01-23T15:25:48;11.07;;;9.73;;
11064;SDS011;5585;52.530;7.320;2023-01-23T15:28:37;11.90;;;9.80;;
11064;SDS011;5585;52.530;7.320;2023-01-23T15:31:03;11.60;;;9.17;;
11064;SDS011;5585;52.530;7.320;2023-01-23T15:33:30;12.50;;;10.13;;
11064;SDS011;5585;52.530;7.320;2023-01-23T15:36:02;11.63;;;9.63;;